Time;durP1;ratioP1;P1;durP2;ratioP2;P2;SDS_P1;SDS_P2;PMS_P1;PMS_P2;Temp;Humidity;BMP_temperature;BMP_pressure;BME280_temperature;BME280_humidity;BME280_pressure;Samples;Min_cycle;Max_cycle;Signal;HPM_P1;HPM_P2
2023/09/15 20:27:23;;;;;;;14.63;5.10;;;;;;;24.10;51.52;101337.47;2410027;72;25223;-77
2023/09/15 20:30:26;;;;;;;14.87;5.55;;;;;;;24.08;51.59;101349.00;2328848;75;52187;-77
2023/09/15 20:33:28;;;;;;;26.35;5.08;;;;;;;24.13;51.52;101344.34;2300120;75;51491;-76
2023/09/15 20:36:30;;;;;;;16.40;6.42;;;;;;;24.18;51.47;101350.50;2319424;76;49826;-78
2023/09/15 20:39:33;;;;;;;20.50;4.95;;;;;;;24.22;51.43;101347.16;2282224;76;52200;-75
2023/09/15 20:42:35;;;;;;;19.60;4.72;;;;;;;24.30;51.24;101351.55;2311590;76;50445;-77
2023/09/15 20:45:38;;;;;;;18.42;4.92;;;;;;;24.35;51.07;101350.42;2313511;76;50070;-78
2023/09/15 20:48:43;;;;;;;16.77;4.83;;;;;;;24.39;50.95;101354.39;2310386;76;50953;-78
2023/09/15 20:51:44;;;;;;;12.78;4.80;;;;;;;24.43;50.79;101357.02;2309595;76;22426;-76
2023/09/15 20:54:47;;;;;;;14.65;4.83;;;;;;;24.47;50.66;101355.58;2255694;76;51322;-76
2023/09/15 20:57:49;;;;;;;11.18;4.90;;;;;;;24.51;50.57;101358.73;2306609;76;51529;-76
2023/09/15 21:00:53;;;;;;;11.48;5.28;;;;;;;24.53;50.56;101360.20;2287142;76;51447;-77
2023/09/15 21:03:55;;;;;;;15.83;4.40;;;;;;;24.54;50.63;101364.55;2234896;76;51637;-79
2023/09/15 21:06:57;;;;;;;13.72;5.40;;;;;;;24.54;50.66;101372.67;2294901;77;51353;-78
2023/09/15 21:10:00;;;;;;;11.22;4.95;;;;;;;24.57;50.54;101363.30;2303798;76;51362;-77
2023/09/15 21:13:02;;;;;;;13.30;4.28;;;;;;;24.58;50.47;101362.26;2227018;76;51661;-77
2023/09/15 21:16:04;;;;;;;16.90;4.65;;;;;;;24.61;50.45;101362.36;2330100;75;50503;-76
2023/09/15 21:19:12;;;;;;;14.35;5.17;;;;;;;24.62;50.43;101363.52;2286525;76;51859;-76
2023/09/15 21:22:11;;;;;;;12.47;4.85;;;;;;;24.64;50.32;101364.69;2291202;77;22229;-76
2023/09/15 21:25:13;;;;;;;13.85;4.62;;;;;;;24.65;50.31;101369.05;2293791;76;50277;-76
2023/09/15 21:28:17;;;;;;;15.83;4.78;;;;;;;24.65;50.31;101366.34;2275741;76;50225;-76
2023/09/15 21:31:19;;;;;;;15.05;4.67;;;;;;;24.65;50.29;101363.11;2322970;76;50700;-79
2023/09/15 21:34:21;;;;;;;13.60;4.60;;;;;;;24.65;50.27;101353.63;2321380;76;51384;-79
2023/09/15 21:37:23;;;;;;;12.80;4.83;;;;;;;24.65;50.21;101359.58;2296455;76;52354;-78
2023/09/15 21:40:25;;;;;;;11.73;4.20;;;;;;;24.66;50.22;101354.46;2341801;76;51345;-77
2023/09/15 21:43:28;;;;;;;11.57;3.98;;;;;;;24.66;50.18;101355.32;2320480;76;50158;-77
2023/09/15 21:46:30;;;;;;;14.50;4.40;;;;;;;24.65;50.21;101345.52;2294818;76;51469;-77
2023/09/15 21:49:33;;;;;;;11.48;4.58;;;;;;;24.66;50.18;101355.32;2320614;76;50139;-77
2023/09/15 21:52:35;;;;;;;8.58;4.83;;;;;;;24.66;50.24;101349.05;2269557;76;51128;-77
2023/09/15 21:55:37;;;;;;;12.07;4.75;;;;;;;24.66;50.25;101357.16;2294705;76;50606;-76
2023/09/15 21:58:39;;;;;;;12.68;4.87;;;;;;;24.66;50.20;101353.97;2274356;76;50271;-77
2023/09/15 22:01:42;;;;;;;12.35;4.78;;;;;;;24.66;50.22;101358.52;2296044;76;51212;-78
2023/09/15 22:04:44;;;;;;;9.88;4.17;;;;;;;24.66;50.25;101352.61;2321774;76;50132;-77
2023/09/15 22:07:46;;;;;;;13.93;4.67;;;;;;;24.66;50.26;101353.11;2320735;76;50508;-77
2023/09/15 22:10:48;;;;;;;11.35;4.12;;;;;;;24.65;50.29;101351.45;2294870;76;50272;-76
2023/09/15 22:13:51;;;;;;;13.75;4.60;;;;;;;24.66;50.28;101360.73;2341775;76;51374;-77
2023/09/15 22:16:53;;;;;;;15.30;4.62;;;;;;;24.65;50.32;101351.45;2296185;76;51106;-76
2023/09/15 22:19:59;;;;;;;11.12;4.30;;;;;;;24.66;50.36;101356.67;2294718;76;50139;-76
2023/09/15 22:22:59;;;;;;;12.65;4.28;;;;;;;24.66;50.35;101350.41;2341773;75;22891;-77
2023/09/15 22:26:01;;;;;;;12.07;4.20;;;;;;;24.64;50.33;101343.86;2254237;76;52415;-78
2023/09/15 22:29:03;;;;;;;9.83;3.83;;;;;;;24.64;50.42;101345.74;2281576;76;51344;-76
2023/09/15 22:32:06;;;;;;;11.22;3.70;;;;;;;24.64;50.40;101347.92;2283693;77;51505;-77
2023/09/15 22:35:14;;;;;;;8.33;4.33;;;;;;;24.66;50.36;101347.20;2246967;77;50549;-77
2023/09/15 22:38:12;;;;;;;9.05;3.72;;;;;;;24.65;50.42;101340.62;2271356;77;22354;-76
2023/09/15 22:41:14;;;;;;;10.32;4.30;;;;;;;24.64;50.46;101330.86;2302948;77;51436;-76
2023/09/15 22:44:17;;;;;;;9.98;4.17;;;;;;;24.65;50.48;101331.98;2302616;77;51346;-77
2023/09/15 22:47:20;;;;;;;8.00;4.10;;;;;;;24.66;50.49;101331.46;2283410;77;51452;-78
2023/09/15 22:50:23;;;;;;;6.85;4.03;;;;;;;24.65;50.50;101337.40;2247353;77;51174;-77
2023/09/15 22:53:26;;;;;;;14.00;4.53;;;;;;;24.66;50.49;101330.11;2283400;77;51471;-77
2023/09/15 22:56:28;;;;;;;11.73;4.58;;;;;;;24.61;50.88;101332.59;2315554;75;50227;-76
2023/09/15 22:59:30;;;;;;;9.53;3.70;;;;;;;24.62;50.71;101333.76;2251239;77;50264;-76
2023/09/15 23:02:32;;;;;;;12.30;3.45;;;;;;;24.65;50.66;101335.22;2302709;77;50604;-76
2023/09/15 23:05:34;;;;;;;10.88;3.80;;;;;;;24.65;50.61;101332.52;2258316;77;52416;-76
2023/09/15 23:08:37;;;;;;;10.35;4.03;;;;;;;24.63;50.67;101325.11;2302957;77;51379;-77
2023/09/15 23:11:39;;;;;;;7.58;3.65;;;;;;;24.62;50.73;101324.81;2302909;77;51343;-76
2023/09/15 23:14:41;;;;;;;10.85;4.35;;;;;;;24.64;50.72;101325.45;2234163;77;51071;-76
2023/09/15 23:17:44;;;;;;;7.25;3.27;;;;;;;24.63;50.75;101326.47;2302850;77;51454;-76
2023/09/15 23:20:47;;;;;;;8.15;3.50;;;;;;;24.63;50.78;101324.59;2258404;77;51265;-76
2023/09/15 23:23:50;;;;;;;9.68;4.08;;;;;;;24.61;50.91;101321.78;2305563;76;51354;-78
2023/09/15 23:26:53;;;;;;;9.43;3.65;;;;;;;24.64;50.81;101320.03;2296863;76;50544;-77
2023/09/15 23:29:56;;;;;;;10.60;4.05;;;;;;;24.61;51.10;101325.83;2258393;77;51122;-76
2023/09/15 23:32:58;;;;;;;10.60;4.25;;;;;;;24.59;50.98;101326.59;2283120;77;51498;-76
2023/09/15 23:36:04;;;;;;;12.07;4.05;;;;;;;24.60;51.02;101315.53;2259836;78;51472;-77
2023/09/15 23:39:05;;;;;;;7.78;3.62;;;;;;;24.58;51.15;101322.20;2218307;79;22384;-77
2023/09/15 23:42:07;;;;;;;8.10;3.67;;;;;;;24.58;51.04;101313.55;2220745;79;50535;-82
2023/09/15 23:45:10;;;;;;;8.23;3.85;;;;;;;24.58;51.08;101320.84;2220706;79;51359;-77
2023/09/15 23:48:12;;;;;;;7.15;3.67;;;;;;;24.59;51.11;101318.47;2197324;79;50283;-77
2023/09/15 23:51:14;;;;;;;9.03;3.37;;;;;;;24.60;51.07;101324.18;2259881;78;50102;-77
2023/09/15 23:54:16;;;;;;;8.10;3.52;;;;;;;24.61;51.05;101321.78;2251671;77;51290;-77
2023/09/15 23:57:19;;;;;;;8.98;3.95;;;;;;;24.61;51.05;101321.78;2268665;78;51860;-76
